Time;durP1;ratioP1;P1;durP2;ratioP2;P2;SDS_P1;SDS_P2;PMS_P1;PMS_P2;Temp;Humidity;BMP_temperature;BMP_pressure;BME280_temperature;BME280_humidity;BME280_pressure;Samples;Min_cycle;Max_cycle;Signal;HPM_P1;HPM_P2
2022/07/27 00:02:24;;;;;;;5.00;2.20;;;;;;;;;;5015182;28;20105;-71
2022/07/27 00:04:50;;;;;;;8.82;2.30;;;;;;;;;;5014711;28;20054;-73
2022/07/27 00:07:16;;;;;;;3.28;1.85;;;;;;;;;;5015535;28;20515;-71
2022/07/27 00:09:41;;;;;;;4.22;1.80;;;;;;;;;;5015295;28;20034;-71
2022/07/27 00:12:08;;;;;;;3.30;2.00;;;;;;;;;;5014954;28;20026;-72
2022/07/27 00:14:34;;;;;;;4.55;1.73;;;;;;;;;;5014897;28;20127;-72
2022/07/27 00:17:00;;;;;;;6.47;1.90;;;;;;;;;;5015119;28;20069;-71
2022/07/27 00:19:26;;;;;;;2.92;1.60;;;;;;;;;;5015017;28;20041;-71
2022/07/27 00:21:52;;;;;;;2.10;1.52;;;;;;;;;;5015066;28;20381;-70
2022/07/27 00:24:18;;;;;;;3.03;1.70;;;;;;;;;;5014707;28;20033;-71
2022/07/27 00:26:44;;;;;;;5.30;2.00;;;;;;;;;;5014681;28;20021;-71
2022/07/27 00:29:10;;;;;;;2.67;1.90;;;;;;;;;;5014687;28;20068;-71
2022/07/27 00:31:36;;;;;;;2.63;1.60;;;;;;;;;;5014608;28;20033;-71
2022/07/27 00:34:02;;;;;;;4.35;1.70;;;;;;;;;;5014545;28;20037;-71
2022/07/27 00:36:28;;;;;;;5.10;1.80;;;;;;;;;;5015063;28;20033;-71
2022/07/27 00:38:54;;;;;;;2.83;1.77;;;;;;;;;;5014661;28;20034;-71
2022/07/27 00:41:20;;;;;;;2.58;1.58;;;;;;;;;;5014467;28;20105;-72
2022/07/27 00:43:50;;;;;;;4.70;2.25;;;;;;;;;;4996737;28;20139;-71
2022/07/27 00:46:16;;;;;;;5.05;1.77;;;;;;;;;;5014386;28;20466;-72
2022/07/27 00:48:42;;;;;;;4.55;1.90;;;;;;;;;;5014333;28;20041;-71
2022/07/27 00:51:08;;;;;;;3.75;1.77;;;;;;;;;;5014265;28;20407;-71
2022/07/27 00:53:34;;;;;;;4.30;1.60;;;;;;;;;;5014734;28;20034;-71
2022/07/27 00:56:00;;;;;;;3.75;1.70;;;;;;;;;;5014160;28;20117;-71
2022/07/27 00:58:26;;;;;;;4.65;2.05;;;;;;;;;;5014085;28;20038;-71
2022/07/27 01:00:52;;;;;;;5.22;1.90;;;;;;;;;;5014288;28;20395;-71
2022/07/27 01:03:18;;;;;;;3.05;1.60;;;;;;;;;;4995578;28;20037;-71
2022/07/27 01:05:45;;;;;;;3.60;1.80;;;;;;;;;;5014576;28;20025;-71
2022/07/27 01:08:14;;;;;;;4.03;1.90;;;;;;;;;;5014239;28;20526;-72
2022/07/27 01:10:40;;;;;;;4.72;1.80;;;;;;;;;;5013952;28;20048;-70
2022/07/27 01:13:06;;;;;;;3.75;2.08;;;;;;;;;;5014129;28;20037;-71
2022/07/27 01:15:32;;;;;;;5.22;2.00;;;;;;;;;;5013874;28;20036;-71
2022/07/27 01:17:58;;;;;;;3.60;1.83;;;;;;;;;;4996229;28;20096;-71
2022/07/27 01:20:24;;;;;;;3.92;1.63;;;;;;;;;;5013689;28;20484;-71
2022/07/27 01:22:50;;;;;;;3.92;1.60;;;;;;;;;;5013747;28;20022;-71
2022/07/27 01:25:17;;;;;;;4.03;2.08;;;;;;;;;;5013731;28;20029;-71
2022/07/27 01:27:43;;;;;;;3.58;1.90;;;;;;;;;;5013696;28;20436;-71
2022/07/27 01:30:29;;;;;;;3.17;1.70;;;;;;;;;;5013662;28;20036;-71
2022/07/27 01:33:05;;;;;;;6.65;2.25;;;;;;;;;;4995815;28;20037;-71
2022/07/27 01:35:31;;;;;;;4.65;1.85;;;;;;;;;;5013531;28;20404;-71
2022/07/27 01:37:58;;;;;;;3.70;1.70;;;;;;;;;;5013785;28;20461;-71
2022/07/27 01:40:24;;;;;;;2.92;1.67;;;;;;;;;;4995791;28;20033;-72
2022/07/27 01:42:50;;;;;;;3.05;1.83;;;;;;;;;;5013480;28;20045;-71
2022/07/27 01:45:16;;;;;;;6.03;2.20;;;;;;;;;;5013433;28;20480;-71
2022/07/27 01:47:42;;;;;;;3.33;1.80;;;;;;;;;;5013425;28;20124;-71
2022/07/27 01:50:08;;;;;;;3.33;1.98;;;;;;;;;;5013394;28;20492;-71
2022/07/27 01:52:34;;;;;;;3.38;1.83;;;;;;;;;;5013924;28;20112;-71
2022/07/27 01:55:00;;;;;;;4.90;2.17;;;;;;;;;;5013636;28;20030;-71
2022/07/27 01:57:26;;;;;;;3.67;1.65;;;;;;;;;;5013370;28;20026;-71
2022/07/27 01:59:53;;;;;;;2.67;1.85;;;;;;;;;;5013157;28;20030;-71
2022/07/27 02:02:19;;;;;;;6.10;2.10;;;;;;;;;;5013539;28;20049;-71
2022/07/27 02:04:45;;;;;;;5.53;2.00;;;;;;;;;;5012861;28;20104;-71
2022/07/27 02:07:11;;;;;;;5.28;2.33;;;;;;;;;;5013771;28;20415;-71
2022/07/27 02:09:37;;;;;;;3.72;2.03;;;;;;;;;;5013193;28;20034;-72
2022/07/27 02:14:49;;;;;;;4.45;1.88;;;;;;;;;;5014388;28;20103;-71
2022/07/27 02:17:15;;;;;;;4.38;2.00;;;;;;;;;;5017121;28;20033;-71
2022/07/27 02:19:41;;;;;;;5.18;2.20;;;;;;;;;;5016989;28;20108;-71
2022/07/27 02:22:07;;;;;;;3.53;2.00;;;;;;;;;;4999461;28;20030;-71
2022/07/27 02:24:36;;;;;;;5.20;2.30;;;;;;;;;;5016984;28;20025;-71
2022/07/27 02:27:02;;;;;;;3.47;1.90;;;;;;;;;;5017226;28;20105;-71
2022/07/27 02:29:29;;;;;;;3.10;2.00;;;;;;;;;;5016867;28;20033;-71
2022/07/27 02:31:55;;;;;;;3.80;2.10;;;;;;;;;;5017154;28;20026;-71
2022/07/27 02:34:21;;;;;;;4.97;2.30;;;;;;;;;;5016847;28;20026;-71
2022/07/27 02:36:47;;;;;;;5.68;2.00;;;;;;;;;;5016780;28;20068;-71
2022/07/27 02:39:13;;;;;;;4.57;2.13;;;;;;;;;;5016670;28;20480;-71
2022/07/27 02:41:39;;;;;;;6.63;2.40;;;;;;;;;;5016702;28;20029;-71
2022/07/27 02:44:05;;;;;;;6.45;2.55;;;;;;;;;;5016636;28;20026;-71
2022/07/27 02:46:31;;;;;;;4.13;2.20;;;;;;;;;;5016853;28;20026;-71
2022/07/27 02:48:57;;;;;;;3.20;1.83;;;;;;;;;;5016549;28;20481;-71
2022/07/27 02:51:23;;;;;;;3.05;1.90;;;;;;;;;;5016770;28;20464;-71
2022/07/27 02:53:49;;;;;;;4.60;2.42;;;;;;;;;;5016465;28;20022;-71
2022/07/27 02:56:15;;;;;;;5.38;2.25;;;;;;;;;;5016694;28;20117;-71
2022/07/27 02:58:41;;;;;;;5.03;2.28;;;;;;;;;;5016318;28;20026;-71
2022/07/27 03:01:07;;;;;;;4.88;2.20;;;;;;;;;;5016242;28;20033;-71
2022/07/27 03:03:33;;;;;;;5.15;2.28;;;;;;;;;;5016257;28;20042;-71
2022/07/27 03:05:59;;;;;;;4.45;2.25;;;;;;;;;;5016738;28;20388;-71
2022/07/27 03:08:25;;;;;;;5.03;2.20;;;;;;;;;;5016167;28;20033;-71
2022/07/27 03:10:51;;;;;;;6.28;2.38;;;;;;;;;;5016167;28;20029;-71
2022/07/27 03:13:17;;;;;;;4.65;2.30;;;;;;;;;;5016074;28;20033;-71
2022/07/27 03:15:43;;;;;;;5.15;2.08;;;;;;;;;;5016052;28;20030;-71
2022/07/27 03:18:09;;;;;;;4.65;2.00;;;;;;;;;;5016256;28;20025;-71
2022/07/27 03:20:35;;;;;;;4.07;2.05;;;;;;;;;;5015856;28;20026;-71
2022/07/27 03:23:02;;;;;;;3.40;1.92;;;;;;;;;;5015863;28;20092;-70
2022/07/27 03:25:28;;;;;;;4.53;2.33;;;;;;;;;;4998119;28;20480;-71
2022/07/27 03:27:54;;;;;;;5.65;2.00;;;;;;;;;;5015480;28;20022;-71
2022/07/27 03:30:21;;;;;;;3.40;1.80;;;;;;;;;;5016070;28;20022;-71
2022/07/27 03:32:47;;;;;;;5.75;2.72;;;;;;;;;;5016026;28;20026;-71
2022/07/27 03:35:14;;;;;;;3.53;2.03;;;;;;;;;;5015967;28;20033;-71
2022/07/27 03:37:40;;;;;;;5.50;1.98;;;;;;;;;;5015638;28;20030;-71
2022/07/27 03:40:06;;;;;;;4.88;2.30;;;;;;;;;;5015532;28;20053;-71
2022/07/27 03:42:32;;;;;;;4.90;2.28;;;;;;;;;;5015794;28;20030;-70
2022/07/27 03:44:58;;;;;;;6.20;2.70;;;;;;;;;;5015521;28;20041;-71
2022/07/27 03:47:24;;;;;;;3.05;2.00;;;;;;;;;;5015743;28;20072;-70
2022/07/27 03:49:51;;;;;;;3.60;2.10;;;;;;;;;;5015403;28;20025;-71
2022/07/27 03:52:18;;;;;;;4.32;2.30;;;;;;;;;;5015338;28;20079;-71
2022/07/27 03:54:44;;;;;;;4.97;2.65;;;;;;;;;;5015370;28;20026;-71
2022/07/27 03:57:10;;;;;;;5.60;2.05;;;;;;;;;;5015516;28;20026;-71
2022/07/27 03:59:36;;;;;;;4.20;2.10;;;;;;;;;;5015043;28;20451;-71
2022/07/27 04:02:03;;;;;;;4.22;2.13;;;;;;;;;;4997538;28;20478;-71
2022/07/27 04:04:29;;;;;;;3.08;2.08;;;;;;;;;;5014788;28;20420;-71
2022/07/27 04:06:55;;;;;;;5.53;2.30;;;;;;;;;;5015608;28;20534;-71
2022/07/27 04:09:21;;;;;;;7.38;2.30;;;;;;;;;;5015071;28;20026;-71
2022/07/27 04:11:47;;;;;;;3.08;2.08;;;;;;;;;;5014982;28;20108;-71
2022/07/27 04:14:13;;;;;;;4.82;2.42;;;;;;;;;;5014946;28;20485;-71
2022/07/27 04:16:40;;;;;;;5.63;3.42;;;;;;;;;;5015175;28;20037;-70
2022/07/27 04:19:06;;;;;;;4.97;2.28;;;;;;;;;;5014741;28;20480;-71
2022/07/27 04:21:33;;;;;;;4.97;2.20;;;;;;;;;;5015058;28;20028;-71
2022/07/27 04:23:59;;;;;;;3.63;2.28;;;;;;;;;;4997213;28;20518;-71
2022/07/27 04:26:25;;;;;;;5.45;3.08;;;;;;;;;;5014757;28;20034;-71
2022/07/27 04:28:51;;;;;;;3.95;2.10;;;;;;;;;;5014715;28;20022;-71
2022/07/27 04:31:17;;;;;;;4.30;2.00;;;;;;;;;;5014656;28;20036;-71
2022/07/27 04:33:43;;;;;;;4.95;2.42;;;;;;;;;;5015171;28;20100;-72
2022/07/27 04:36:09;;;;;;;4.43;1.83;;;;;;;;;;5014843;28;20060;-71
2022/07/27 04:38:35;;;;;;;3.97;2.17;;;;;;;;;;5013483;28;20076;-71
2022/07/27 04:41:02;;;;;;;4.13;2.13;;;;;;;;;;5014478;28;20032;-71
2022/07/27 04:43:28;;;;;;;4.85;2.10;;;;;;;;;;5014732;28;20022;-71
2022/07/27 04:45:54;;;;;;;2.78;2.00;;;;;;;;;;5014390;28;20125;-71
2022/07/27 04:48:20;;;;;;;5.15;2.75;;;;;;;;;;5014406;28;20022;-72
2022/07/27 04:50:46;;;;;;;3.97;2.13;;;;;;;;;;5014257;28;20080;-71
2022/07/27 04:53:13;;;;;;;6.30;2.60;;;;;;;;;;5014209;28;20021;-71
2022/07/27 04:55:42;;;;;;;4.00;2.45;;;;;;;;;;5014213;28;20026;-71
2022/07/27 04:58:08;;;;;;;4.03;2.22;;;;;;;;;;5014184;28;20030;-71
2022/07/27 05:00:34;;;;;;;4.15;2.03;;;;;;;;;;5014248;28;20056;-71
2022/07/27 05:03:00;;;;;;;4.45;2.15;;;;;;;;;;5013855;28;20045;-71
2022/07/27 05:05:26;;;;;;;3.33;2.10;;;;;;;;;;5014063;28;20101;-71
2022/07/27 05:07:53;;;;;;;5.60;2.08;;;;;;;;;;5014756;28;20105;-71
2022/07/27 05:10:19;;;;;;;4.72;2.00;;;;;;;;;;5014266;28;20039;-71
2022/07/27 05:12:45;;;;;;;4.90;2.10;;;;;;;;;;5014434;28;20040;-71
2022/07/27 05:15:11;;;;;;;4.97;2.47;;;;;;;;;;5014434;28;20033;-71
2022/07/27 05:17:38;;;;;;;4.97;2.40;;;;;;;;;;5014119;28;20029;-71
2022/07/27 05:20:04;;;;;;;10.02;2.90;;;;;;;;;;5013783;28;20480;-71
2022/07/27 05:22:30;;;;;;;8.10;2.80;;;;;;;;;;5013818;28;20025;-71
2022/07/27 05:24:56;;;;;;;4.90;2.40;;;;;;;;;;5013687;28;20034;-71
2022/07/27 05:27:22;;;;;;;5.07;2.40;;;;;;;;;;5013984;28;20098;-71
2022/07/27 05:29:48;;;;;;;4.30;2.42;;;;;;;;;;5013959;28;20061;-71
2022/07/27 05:32:14;;;;;;;5.40;2.33;;;;;;;;;;5013629;28;20022;-71
2022/07/27 05:34:40;;;;;;;5.30;2.60;;;;;;;;;;5013845;28;20030;-71
2022/07/27 05:37:07;;;;;;;4.10;2.28;;;;;;;;;;5013589;28;20028;-71
2022/07/27 05:39:33;;;;;;;5.45;2.42;;;;;;;;;;5013788;28;20104;-70
2022/07/27 05:41:59;;;;;;;7.47;2.55;;;;;;;;;;5013539;28;20546;-71
2022/07/27 05:44:25;;;;;;;4.07;2.17;;;;;;;;;;5013490;28;20026;-71
2022/07/27 05:46:51;;;;;;;5.60;3.20;;;;;;;;;;5013476;28;20384;-71
2022/07/27 05:49:17;;;;;;;5.32;3.08;;;;;;;;;;5013040;28;20026;-71
2022/07/27 05:51:43;;;;;;;4.82;2.70;;;;;;;;;;4995763;28;20088;-71
2022/07/27 05:54:09;;;;;;;7.63;3.05;;;;;;;;;;5013322;28;20026;-71
2022/07/27 05:56:35;;;;;;;5.82;3.30;;;;;;;;;;5013636;28;20026;-70
2022/07/27 05:59:01;;;;;;;8.82;3.70;;;;;;;;;;5013280;28;20034;-71
2022/07/27 06:01:27;;;;;;;6.88;2.75;;;;;;;;;;5013247;28;20104;-71
2022/07/27 06:03:53;;;;;;;4.95;2.47;;;;;;;;;;5013238;28;20153;-71
2022/07/27 06:09:04;;;;;;;4.72;2.65;;;;;;;;;;5013344;28;20048;-71
2022/07/27 06:11:30;;;;;;;6.82;2.78;;;;;;;;;;5013491;28;20108;-71
2022/07/27 06:13:56;;;;;;;7.43;2.72;;;;;;;;;;5013709;28;20539;-71
2022/07/27 06:16:22;;;;;;;6.80;3.20;;;;;;;;;;5013145;28;20117;-71
2022/07/27 06:18:48;;;;;;;7.40;2.50;;;;;;;;;;5013629;28;20065;-71
2022/07/27 06:21:14;;;;;;;6.13;2.47;;;;;;;;;;5013412;28;20018;-71
2022/07/27 06:23:40;;;;;;;4.50;2.45;;;;;;;;;;5013184;28;20033;-70
2022/07/27 06:26:06;;;;;;;3.45;2.22;;;;;;;;;;5013084;28;20518;-69
2022/07/27 06:28:32;;;;;;;5.57;2.22;;;;;;;;;;5013120;28;20030;-71
2022/07/27 06:30:58;;;;;;;5.35;2.60;;;;;;;;;;5013063;28;20591;-71
2022/07/27 06:33:28;;;;;;;7.70;2.58;;;;;;;;;;5013025;28;20033;-71
2022/07/27 06:35:54;;;;;;;6.45;2.72;;;;;;;;;;5013037;28;20021;-70
2022/07/27 06:38:21;;;;;;;5.75;3.22;;;;;;;;;;5012993;28;20037;-71
2022/07/27 06:40:51;;;;;;;4.95;3.25;;;;;;;;;;5013147;28;20026;-71
2022/07/27 06:43:18;;;;;;;5.78;2.42;;;;;;;;;;5013268;28;20018;-71
2022/07/27 06:45:44;;;;;;;6.82;3.88;;;;;;;;;;5012939;28;20432;-71
2022/07/27 06:48:10;;;;;;;6.40;2.65;;;;;;;;;;5012923;28;20026;-71
2022/07/27 06:50:36;;;;;;;5.28;2.83;;;;;;;;;;5013120;28;20526;-71
2022/07/27 06:53:02;;;;;;;5.10;2.53;;;;;;;;;;5012893;28;20108;-71
2022/07/27 06:55:28;;;;;;;6.30;2.88;;;;;;;;;;5012846;28;20395;-71
2022/07/27 06:57:54;;;;;;;4.72;2.47;;;;;;;;;;5012794;28;20030;-72
2022/07/27 07:00:20;;;;;;;7.13;2.67;;;;;;;;;;5013159;28;20025;-70
2022/07/27 07:03:01;;;;;;;6.20;2.85;;;;;;;;;;5015240;28;20026;-71
2022/07/27 07:05:28;;;;;;;6.78;2.50;;;;;;;;;;5016549;28;20126;-71
2022/07/27 07:07:54;;;;;;;3.33;2.50;;;;;;;;;;5017282;28;20026;-72
2022/07/27 07:10:21;;;;;;;6.93;2.97;;;;;;;;;;5016484;28;20384;-71
2022/07/27 07:12:47;;;;;;;5.07;2.45;;;;;;;;;;5016420;28;20460;-72
2022/07/27 07:15:13;;;;;;;7.22;3.08;;;;;;;;;;5016099;28;20057;-71
2022/07/27 07:17:39;;;;;;;7.00;3.33;;;;;;;;;;5016079;28;20105;-71
2022/07/27 07:20:07;;;;;;;10.57;2.88;;;;;;;;;;5016427;28;20065;-72
2022/07/27 07:22:33;;;;;;;5.82;2.65;;;;;;;;;;5016013;28;20452;-72
2022/07/27 07:24:59;;;;;;;4.25;2.55;;;;;;;;;;5015908;28;20037;-71
2022/07/27 07:27:26;;;;;;;4.50;2.80;;;;;;;;;;5015904;28;20581;-72
2022/07/27 07:29:52;;;;;;;6.18;2.80;;;;;;;;;;5015801;28;20022;-73
2022/07/27 07:32:21;;;;;;;5.82;2.65;;;;;;;;;;5016070;28;20064;-72
2022/07/27 07:34:47;;;;;;;;;;;;;;;;;;5016436;28;20033;-72
2022/07/27 07:37:13;;;;;;;9.30;2.60;;;;;;;;;;5015707;28;19913;-71
2022/07/27 07:39:39;;;;;;;7.07;2.67;;;;;;;;;;4997959;28;20045;-72
2022/07/27 07:42:05;;;;;;;11.00;3.00;;;;;;;;;;5015611;28;20022;-68
2022/07/27 07:44:31;;;;;;;5.93;2.90;;;;;;;;;;5015569;28;20064;-70
2022/07/27 07:46:57;;;;;;;6.15;2.53;;;;;;;;;;5015489;28;20028;-69
2022/07/27 07:49:23;;;;;;;8.07;2.80;;;;;;;;;;5015456;28;20034;-69
2022/07/27 07:51:49;;;;;;;4.82;2.33;;;;;;;;;;5015429;28;20543;-69
2022/07/27 07:54:15;;;;;;;7.45;2.33;;;;;;;;;;5015310;28;20026;-69
2022/07/27 07:56:41;;;;;;;7.10;2.00;;;;;;;;;;4995858;28;20031;-78
2022/07/27 07:59:07;;;;;;;5.65;1.95;;;;;;;;;;4985201;28;20477;-71
2022/07/27 08:01:33;;;;;;;4.82;1.90;;;;;;;;;;4989359;28;20073;-72
2022/07/27 08:03:59;;;;;;;7.03;2.10;;;;;;;;;;5003837;28;20556;-71
2022/07/27 08:06:28;;;;;;;5.28;1.73;;;;;;;;;;4991745;28;20030;-77
2022/07/27 08:08:54;;;;;;;5.22;1.85;;;;;;;;;;4995805;28;20472;-75
2022/07/27 08:11:20;;;;;;;6.25;1.42;;;;;;;;;;4995744;28;20511;-75
2022/07/27 08:13:46;;;;;;;5.60;2.10;;;;;;;;;;4995165;28;20045;-75
2022/07/27 08:16:13;;;;;;;4.35;1.80;;;;;;;;;;4992560;28;20101;-74
2022/07/27 08:18:39;;;;;;;4.97;1.90;;;;;;;;;;4989518;28;20404;-77
2022/07/27 08:21:05;;;;;;;5.13;1.58;;;;;;;;;;4981540;28;20032;-76
2022/07/27 08:23:31;;;;;;;5.32;1.90;;;;;;;;;;4996766;28;20504;-69
2022/07/27 08:25:57;;;;;;;3.92;1.60;;;;;;;;;;4987860;28;20085;-74
2022/07/27 08:28:23;;;;;;;4.53;1.85;;;;;;;;;;4995137;28;20026;-69
2022/07/27 08:30:49;;;;;;;4.97;1.70;;;;;;;;;;4977632;28;20022;-68
2022/07/27 08:33:16;;;;;;;3.58;1.50;;;;;;;;;;4984078;28;20049;-70
2022/07/27 08:35:42;;;;;;;4.63;1.52;;;;;;;;;;4975521;28;20543;-75
2022/07/27 08:38:08;;;;;;;10.93;2.38;;;;;;;;;;4971725;28;20125;-76
2022/07/27 08:40:34;;;;;;;4.35;1.65;;;;;;;;;;4977393;28;20037;-75
2022/07/27 08:43:02;;;;;;;3.55;1.58;;;;;;;;;;4993646;28;20022;-76
2022/07/27 08:45:28;;;;;;;3.47;1.52;;;;;;;;;;4976431;28;20026;-75
2022/07/27 08:47:54;;;;;;;5.30;1.90;;;;;;;;;;4975434;28;20378;-76
2022/07/27 08:50:24;;;;;;;5.30;1.48;;;;;;;;;;4975315;28;20027;-70
2022/07/27 08:53:06;;;;;;;3.80;1.40;;;;;;;;;;4974994;28;20059;-73
2022/07/27 08:55:33;;;;;;;2.45;1.23;;;;;;;;;;4978644;28;20054;-75
2022/07/27 08:57:59;;;;;;;3.60;1.25;;;;;;;;;;4985144;28;20108;-73
2022/07/27 09:00:26;;;;;;;3.33;1.20;;;;;;;;;;4991913;28;20396;-74
2022/07/27 09:02:53;;;;;;;4.30;1.90;;;;;;;;;;4987966;28;20130;-76
2022/07/27 09:05:19;;;;;;;3.75;1.50;;;;;;;;;;4975533;28;20442;-70
2022/07/27 09:07:45;;;;;;;3.28;1.45;;;;;;;;;;4969535;28;20113;-73
2022/07/27 09:10:14;;;;;;;3.35;1.60;;;;;;;;;;4958354;28;20434;-72
2022/07/27 09:12:40;;;;;;;2.03;1.13;;;;;;;;;;4959105;28;20026;-72
2022/07/27 09:15:10;;;;;;;3.72;1.38;;;;;;;;;;4964004;28;20039;-76
2022/07/27 09:17:37;;;;;;;4.18;1.42;;;;;;;;;;4955475;29;20039;-71
2022/07/27 09:20:05;;;;;;;3.42;1.52;;;;;;;;;;4956018;29;20031;-75
2022/07/27 09:22:40;;;;;;;2.90;1.50;;;;;;;;;;4956464;28;20532;-78
2022/07/27 09:25:07;;;;;;;2.90;1.65;;;;;;;;;;4937668;29;20078;-76
2022/07/27 09:27:33;;;;;;;5.80;1.67;;;;;;;;;;4938201;29;20034;-78
2022/07/27 09:30:29;;;;;;;3.42;1.40;;;;;;;;;;4955629;29;20035;-76
2022/07/27 09:33:02;;;;;;;5.75;1.77;;;;;;;;;;4953432;29;20067;-80
2022/07/27 09:35:33;;;;;;;3.55;1.63;;;;;;;;;;4938112;29;20038;-77
2022/07/27 09:38:28;;;;;;;2.75;1.38;;;;;;;;;;4955211;28;20030;-70
2022/07/27 09:41:04;;;;;;;5.78;1.90;;;;;;;;;;4952745;28;20053;-76
2022/07/27 09:43:32;;;;;;;6.07;1.77;;;;;;;;;;4974847;28;20030;-74
2022/07/27 09:46:05;;;;;;;4.40;1.60;;;;;;;;;;4973180;28;20026;-73
2022/07/27 09:48:33;;;;;;;3.08;1.40;;;;;;;;;;4974764;28;20086;-72
2022/07/27 09:51:03;;;;;;;3.00;1.40;;;;;;;;;;4972457;28;20050;-77
2022/07/27 09:53:33;;;;;;;3.00;1.42;;;;;;;;;;4974389;28;20482;-75
2022/07/27 09:55:59;;;;;;;3.72;1.40;;;;;;;;;;4956145;28;20034;-78
2022/07/27 09:58:40;;;;;;;4.05;1.80;;;;;;;;;;4974685;28;20069;-75
2022/07/27 10:01:07;;;;;;;1.85;1.30;;;;;;;;;;4954804;28;20039;-77
2022/07/27 10:03:33;;;;;;;6.93;1.63;;;;;;;;;;4963997;28;20074;-77
2022/07/27 10:06:00;;;;;;;5.80;1.70;;;;;;;;;;4974403;28;20026;-73
2022/07/27 10:08:26;;;;;;;6.18;1.80;;;;;;;;;;4986806;28;20404;-78
2022/07/27 10:10:52;;;;;;;3.70;1.27;;;;;;;;;;4993610;28;20105;-78
2022/07/27 10:13:18;;;;;;;4.68;1.40;;;;;;;;;;4989951;28;20116;-77
2022/07/27 10:15:44;;;;;;;5.82;1.42;;;;;;;;;;4991748;28;20488;-73
2022/07/27 10:18:15;;;;;;;3.72;1.30;;;;;;;;;;4991679;28;20038;-73
2022/07/27 10:20:41;;;;;;;5.22;1.40;;;;;;;;;;4993674;28;20038;-73
2022/07/27 10:23:08;;;;;;;3.63;1.30;;;;;;;;;;4993548;28;20101;-72
2022/07/27 10:25:34;;;;;;;5.22;1.70;;;;;;;;;;4991679;28;20425;-78
2022/07/27 10:28:08;;;;;;;1.77;1.20;;;;;;;;;;4989635;28;20507;-75
2022/07/27 10:30:34;;;;;;;4.43;1.35;;;;;;;;;;4976862;28;20035;-71
2022/07/27 10:33:03;;;;;;;2.17;1.30;;;;;;;;;;4976669;28;20082;-73
2022/07/27 10:35:32;;;;;;;4.10;1.60;;;;;;;;;;4994143;28;20026;-72
2022/07/27 10:38:06;;;;;;;3.97;1.75;;;;;;;;;;4997151;28;20117;-74
2022/07/27 10:40:35;;;;;;;6.50;1.67;;;;;;;;;;4997256;28;20385;-72
2022/07/27 10:43:18;;;;;;;2.10;1.33;;;;;;;;;;4997131;28;20027;-73
2022/07/27 10:45:47;;;;;;;4.38;1.40;;;;;;;;;;4997321;28;20089;-74
2022/07/27 10:48:33;;;;;;;3.63;1.38;;;;;;;;;;4979531;28;20037;-72
2022/07/27 10:50:59;;;;;;;3.33;1.50;;;;;;;;;;4996754;28;20034;-73
2022/07/27 10:53:52;;;;;;;2.88;1.15;;;;;;;;;;4997229;28;20030;-74
2022/07/27 10:56:38;;;;;;;2.42;1.20;;;;;;;;;;4993214;28;20514;-73
2022/07/27 10:59:04;;;;;;;3.13;1.48;;;;;;;;;;4996711;28;20042;-72
2022/07/27 11:01:30;;;;;;;3.40;1.30;;;;;;;;;;4996996;28;20387;-71
2022/07/27 11:04:07;;;;;;;3.25;1.30;;;;;;;;;;4996568;28;20043;-72
2022/07/27 11:06:33;;;;;;;2.65;1.45;;;;;;;;;;4978993;28;20080;-74
2022/07/27 11:09:00;;;;;;;2.20;1.23;;;;;;;;;;4997195;28;20102;-72
2022/07/27 11:11:26;;;;;;;4.85;1.40;;;;;;;;;;4996591;28;20039;-72
2022/07/27 11:13:54;;;;;;;2.45;1.20;;;;;;;;;;4979083;28;20162;-71
2022/07/27 11:16:20;;;;;;;3.25;1.60;;;;;;;;;;4996575;28;20547;-72
2022/07/27 11:18:57;;;;;;;3.65;1.50;;;;;;;;;;4996481;28;20026;-73
2022/07/27 11:21:33;;;;;;;2.92;1.30;;;;;;;;;;4979003;28;20033;-72
2022/07/27 11:24:05;;;;;;;3.00;1.33;;;;;;;;;;4978919;28;20054;-71
2022/07/27 11:26:37;;;;;;;3.42;1.60;;;;;;;;;;4996582;28;20025;-73
2022/07/27 11:29:06;;;;;;;4.28;1.50;;;;;;;;;;4978607;28;20049;-71
2022/07/27 11:31:32;;;;;;;2.95;1.35;;;;;;;;;;4996812;28;20022;-72
2022/07/27 11:33:59;;;;;;;3.65;1.63;;;;;;;;;;4978661;28;20024;-72
2022/07/27 11:36:39;;;;;;;4.20;1.23;;;;;;;;;;4996131;28;20089;-72
2022/07/27 11:39:06;;;;;;;2.22;1.30;;;;;;;;;;4978302;28;20026;-73
2022/07/27 11:41:33;;;;;;;3.30;1.30;;;;;;;;;;4995966;28;20031;-73
2022/07/27 11:44:04;;;;;;;3.13;1.38;;;;;;;;;;4995666;28;20022;-73
2022/07/27 11:46:31;;;;;;;4.22;1.83;;;;;;;;;;4996214;28;20028;-72
2022/07/27 11:48:57;;;;;;;3.38;1.40;;;;;;;;;;4995376;28;20496;-72
2022/07/27 11:51:24;;;;;;;4.53;1.75;;;;;;;;;;4995871;28;20477;-73
2022/07/27 11:54:00;;;;;;;3.72;1.58;;;;;;;;;;4995887;28;20014;-72
2022/07/27 11:56:27;;;;;;;3.65;1.00;;;;;;;;;;4996131;28;20042;-72
2022/07/27 11:58:56;;;;;;;4.53;1.40;;;;;;;;;;4995677;28;20024;-71
2022/07/27 12:01:30;;;;;;;3.17;1.67;;;;;;;;;;4995675;28;20046;-72
2022/07/27 12:04:22;;;;;;;2.28;1.30;;;;;;;;;;4995524;28;20073;-72
2022/07/27 12:06:59;;;;;;;2.88;1.27;;;;;;;;;;4991257;28;20050;-73
2022/07/27 12:09:25;;;;;;;4.13;1.50;;;;;;;;;;4996623;28;20113;-72
2022/07/27 12:11:56;;;;;;;2.83;1.10;;;;;;;;;;4996104;28;20064;-72
2022/07/27 12:14:26;;;;;;;3.63;1.45;;;;;;;;;;4995481;28;20031;-72
2022/07/27 12:16:54;;;;;;;3.92;1.27;;;;;;;;;;4995464;28;20515;-72
2022/07/27 12:19:23;;;;;;;3.90;1.63;;;;;;;;;;4995289;28;20022;-72
2022/07/27 12:21:54;;;;;;;5.25;1.40;;;;;;;;;;4995415;28;20460;-72
2022/07/27 12:24:30;;;;;;;3.17;1.10;;;;;;;;;;4995295;28;20101;-72
2022/07/27 12:27:04;;;;;;;4.53;1.67;;;;;;;;;;4995790;28;20034;-72
2022/07/27 12:29:30;;;;;;;3.17;1.30;;;;;;;;;;4977668;28;20026;-72
2022/07/27 12:32:00;;;;;;;7.32;1.50;;;;;;;;;;4977635;28;20080;-72
2022/07/27 12:34:31;;;;;;;1.63;1.20;;;;;;;;;;4995414;28;20030;-72
2022/07/27 12:36:57;;;;;;;4.70;1.40;;;;;;;;;;4995357;28;20034;-73
2022/07/27 12:39:26;;;;;;;2.45;1.17;;;;;;;;;;4995197;28;20037;-73
2022/07/27 12:42:03;;;;;;;2.83;1.25;;;;;;;;;;4995005;28;20026;-72
2022/07/27 12:44:33;;;;;;;4.22;1.60;;;;;;;;;;4994910;28;20034;-72
2022/07/27 12:47:39;;;;;;;1.95;1.38;;;;;;;;;;4995123;28;20030;-73
2022/07/27 12:49:59;;;;;;;3.28;1.23;;;;;;;;;;4994575;28;20031;-72
2022/07/27 12:52:25;;;;;;;3.85;1.35;;;;;;;;;;4994751;28;20044;-72
2022/07/27 12:54:51;;;;;;;5.03;1.60;;;;;;;;;;4994710;28;20575;-71
2022/07/27 12:57:17;;;;;;;2.45;1.33;;;;;;;;;;4994917;28;20030;-72
2022/07/27 12:59:46;;;;;;;3.00;1.42;;;;;;;;;;4993624;28;20366;-72
2022/07/27 13:02:12;;;;;;;3.58;1.35;;;;;;;;;;4994592;28;20097;-73
2022/07/27 13:04:39;;;;;;;2.97;1.30;;;;;;;;;;4994147;28;20049;-71
2022/07/27 13:07:05;;;;;;;4.40;1.33;;;;;;;;;;4995065;28;20026;-72
2022/07/27 13:09:34;;;;;;;2.55;1.13;;;;;;;;;;4994978;28;20433;-72
2022/07/27 13:12:00;;;;;;;3.05;1.50;;;;;;;;;;4994393;28;20062;-71
2022/07/27 13:14:26;;;;;;;4.38;1.40;;;;;;;;;;4994645;28;20023;-72
2022/07/27 13:16:52;;;;;;;4.75;1.55;;;;;;;;;;4994336;28;20038;-72
2022/07/27 13:19:18;;;;;;;2.97;1.23;;;;;;;;;;4994243;28;20060;-72
2022/07/27 13:21:44;;;;;;;5.03;1.25;;;;;;;;;;4994277;28;20366;-72
2022/07/27 13:24:10;;;;;;;4.18;1.58;;;;;;;;;;4994150;28;20025;-71
2022/07/27 13:26:36;;;;;;;3.35;1.63;;;;;;;;;;4994175;28;20029;-73
2022/07/27 13:29:03;;;;;;;4.93;1.52;;;;;;;;;;4994410;28;20061;-72
2022/07/27 13:31:30;;;;;;;3.60;1.50;;;;;;;;;;4994095;28;20547;-72
2022/07/27 13:33:56;;;;;;;2.63;1.30;;;;;;;;;;4994353;28;20026;-71
2022/07/27 13:36:22;;;;;;;3.28;1.30;;;;;;;;;;4994054;28;20030;-73
2022/07/27 13:38:48;;;;;;;4.57;1.27;;;;;;;;;;4993963;28;20510;-71
2022/07/27 13:41:14;;;;;;;4.32;1.27;;;;;;;;;;4993872;28;20030;-72
2022/07/27 13:43:40;;;;;;;3.30;1.17;;;;;;;;;;4993855;28;20018;-73
2022/07/27 13:46:07;;;;;;;2.45;1.30;;;;;;;;;;4993946;28;20022;-73
2022/07/27 13:48:33;;;;;;;3.72;1.40;;;;;;;;;;4993839;28;20026;-73
2022/07/27 13:50:59;;;;;;;3.75;1.33;;;;;;;;;;4993574;28;20030;-73
2022/07/27 13:53:25;;;;;;;3.53;1.48;;;;;;;;;;4993870;28;20605;-72
2022/07/27 13:55:51;;;;;;;3.65;1.30;;;;;;;;;;4994075;28;20034;-73
2022/07/27 13:58:17;;;;;;;3.70;1.30;;;;;;;;;;4993792;28;20037;-72
2022/07/27 14:00:44;;;;;;;2.65;1.23;;;;;;;;;;4993601;28;20034;-73
2022/07/27 14:03:10;;;;;;;2.92;1.52;;;;;;;;;;4976036;28;20050;-74
2022/07/27 14:05:36;;;;;;;3.20;1.45;;;;;;;;;;4993798;28;20057;-72
2022/07/27 14:08:03;;;;;;;2.67;1.23;;;;;;;;;;4994266;28;20041;-72
2022/07/27 14:10:38;;;;;;;2.55;1.58;;;;;;;;;;4995067;28;20085;-72
2022/07/27 14:13:05;;;;;;;5.60;1.20;;;;;;;;;;4980020;28;20026;-72
2022/07/27 14:15:31;;;;;;;4.65;1.52;;;;;;;;;;4997628;28;20037;-71
2022/07/27 14:17:57;;;;;;;2.70;1.35;;;;;;;;;;4997911;28;20492;-72
2022/07/27 14:20:23;;;;;;;1.90;1.50;;;;;;;;;;4997769;28;20042;-71
2022/07/27 14:22:49;;;;;;;2.97;1.40;;;;;;;;;;4997473;28;20024;-71
2022/07/27 14:25:15;;;;;;;5.28;1.50;;;;;;;;;;4997525;28;20030;-73
2022/07/27 14:27:41;;;;;;;3.42;1.38;;;;;;;;;;4997433;28;20029;-73
2022/07/27 14:30:08;;;;;;;7.00;1.60;;;;;;;;;;4997696;28;20026;-72
2022/07/27 14:32:34;;;;;;;6.95;5.18;;;;;;;;;;4997403;28;20078;-73
2022/07/27 14:35:00;;;;;;;3.05;1.20;;;;;;;;;;4997840;28;20030;-72
2022/07/27 14:37:26;;;;;;;2.00;1.08;;;;;;;;;;4979772;28;20080;-73
2022/07/27 14:39:52;;;;;;;2.97;1.40;;;;;;;;;;4997112;28;20034;-71
2022/07/27 14:42:20;;;;;;;6.43;1.77;;;;;;;;;;4997090;28;20124;-72
2022/07/27 14:44:47;;;;;;;3.45;1.20;;;;;;;;;;4996975;28;20030;-72
2022/07/27 14:47:13;;;;;;;4.28;1.73;;;;;;;;;;4997315;28;20541;-73
2022/07/27 14:49:39;;;;;;;7.90;1.65;;;;;;;;;;4979492;28;20390;-72
2022/07/27 14:52:07;;;;;;;2.58;1.45;;;;;;;;;;4996964;28;20081;-72